createdAt,value
2023-04-18T00:01:48.990Z,101204.06
2023-04-18T00:04:18.535Z,101202.31
2023-04-18T00:06:47.171Z,101200.19
2023-04-18T00:09:14.603Z,101205.41
2023-04-18T00:11:42.044Z,101203.72
2023-04-18T00:14:10.327Z,101201.59
2023-04-18T00:16:38.058Z,101200.56
2023-04-18T00:19:06.182Z,101204.81
2023-04-18T00:21:34.971Z,101199.34
2023-04-18T00:24:02.406Z,101206.34
2023-04-18T00:26:29.798Z,101190.44
2023-04-18T00:28:57.735Z,101194.28
2023-04-18T00:31:25.357Z,101198.13
2023-04-18T00:33:52.853Z,101197.16
2023-04-18T00:36:20.260Z,101195.44
2023-04-18T00:38:48.943Z,101192.16
2023-04-18T00:41:16.477Z,101195.22
2023-04-18T00:43:43.878Z,101196.97
2023-04-18T00:46:11.270Z,101190.44
2023-04-18T00:48:39.795Z,101192.53
2023-04-18T00:51:07.877Z,101188.31
2023-04-18T00:53:35.285Z,101190.06
2023-04-18T00:56:04.850Z,101186.16
2023-04-18T00:58:32.944Z,101186.56
2023-04-18T01:01:00.376Z,101188.81
2023-04-18T01:03:27.937Z,101190.47
2023-04-18T01:05:57.326Z,101186.47
2023-04-18T01:08:25.535Z,101178.81
2023-04-18T01:10:52.938Z,101184.19
2023-04-18T01:13:21.777Z,101185.13
2023-04-18T01:15:51.565Z,101187.06
2023-04-18T01:18:20.761Z,101184.31
2023-04-18T01:20:49.731Z,101181.41
2023-04-18T01:23:18.687Z,101180.69
2023-04-18T01:25:49.172Z,101180.81
2023-04-18T01:28:16.890Z,101192.31
2023-04-18T01:30:44.326Z,101178.84
2023-04-18T01:33:11.934Z,101181.00
2023-04-18T01:35:39.336Z,101180.16
2023-04-18T01:38:06.725Z,101171.50
2023-04-18T01:40:34.118Z,101181.41
2023-04-18T01:43:02.879Z,101177.81
2023-04-18T01:45:30.590Z,101185.94
2023-04-18T01:47:58.147Z,101178.31
2023-04-18T01:50:26.002Z,101174.59
2023-04-18T01:52:53.482Z,101181.72
2023-04-18T01:55:20.976Z,101184.09
2023-04-18T01:57:48.377Z,101176.16
2023-04-18T02:00:17.834Z,101188.94
2023-04-18T02:02:45.415Z,101174.50
2023-04-18T02:05:12.874Z,101168.53
2023-04-18T02:07:40.929Z,101178.13
2023-04-18T02:10:09.152Z,101178.22
2023-04-18T02:12:36.687Z,101178.84
2023-04-18T02:15:04.348Z,101183.19
2023-04-18T02:17:33.482Z,101186.16
2023-04-18T02:20:00.898Z,101174.25
2023-04-18T02:22:28.263Z,101180.28
2023-04-18T02:24:55.817Z,101188.81
2023-04-18T02:27:23.206Z,101187.09
2023-04-18T02:29:50.669Z,101193.31
2023-04-18T02:32:18.081Z,101191.41
2023-04-18T02:34:46.752Z,101185.75
2023-04-18T02:37:14.118Z,101181.94
2023-04-18T02:39:41.489Z,101183.06
2023-04-18T02:42:08.851Z,101170.16
2023-04-18T02:44:36.224Z,101182.75
2023-04-18T02:47:03.573Z,101183.03
2023-04-18T02:49:30.935Z,101186.34
2023-04-18T02:51:59.636Z,101188.44
2023-04-18T02:54:26.997Z,101181.50
2023-04-18T02:56:55.270Z,101192.00
2023-04-18T02:59:22.661Z,101199.13
2023-04-18T03:01:50.039Z,101188.13
2023-04-18T03:04:17.497Z,101201.63
2023-04-18T03:06:44.958Z,101211.81
2023-04-18T03:09:13.665Z,101211.00
2023-04-18T03:11:41.082Z,101200.16
2023-04-18T03:14:08.451Z,101207.53
2023-04-18T03:16:35.890Z,101200.25
2023-04-18T03:19:03.249Z,101198.59
2023-04-18T03:21:30.735Z,101204.44
2023-04-18T03:23:58.137Z,101190.81
2023-04-18T03:26:26.987Z,101205.44
2023-04-18T03:28:54.426Z,101201.69
2023-04-18T03:31:21.854Z,101201.84
2023-04-18T03:33:51.534Z,101201.97
2023-04-18T03:36:19.016Z,101205.22
2023-04-18T03:38:46.536Z,101193.88
2023-04-18T03:41:13.891Z,101203.66
2023-04-18T03:43:42.549Z,101198.84
2023-04-18T03:46:10.037Z,101199.72
2023-04-18T03:48:37.482Z,101204.94
2023-04-18T03:51:06.653Z,101218.50
2023-04-18T03:53:33.996Z,101216.81
2023-04-18T03:56:01.384Z,101213.44
2023-04-18T03:58:28.740Z,101210.41
2023-04-18T04:00:57.444Z,101209.59
2023-04-18T04:03:25.079Z,101217.31
2023-04-18T04:05:53.568Z,101218.84
2023-04-18T04:08:21.215Z,101219.00
2023-04-18T04:10:48.592Z,101222.41
2023-04-18T04:13:15.990Z,101214.97
2023-04-18T04:15:43.402Z,101216.78
2023-04-18T04:18:12.083Z,101217.88
2023-04-18T04:20:39.507Z,101226.13
2023-04-18T04:23:07.236Z,101220.41
2023-04-18T04:25:34.674Z,101218.44
2023-04-18T04:28:02.961Z,101227.44
2023-04-18T04:30:30.500Z,101222.56
2023-04-18T04:32:58.151Z,101237.56
2023-04-18T04:35:26.902Z,101241.25
2023-04-18T04:37:54.621Z,101238.31
2023-04-18T04:40:22.933Z,101238.41
2023-04-18T04:42:53.891Z,101242.81
2023-04-18T04:45:21.509Z,101238.53
2023-04-18T04:47:48.910Z,101252.28
2023-04-18T04:50:16.570Z,101256.56
2023-04-18T04:52:45.276Z,101258.84
2023-04-18T04:55:12.685Z,101253.31
2023-04-18T04:57:40.079Z,101254.63
2023-04-18T05:00:08.955Z,101254.91
2023-04-18T05:02:36.487Z,101256.16
2023-04-18T05:05:04.163Z,101259.28
2023-04-18T05:07:31.777Z,101263.44
2023-04-18T05:10:00.491Z,101262.75
2023-04-18T05:12:27.887Z,101257.81
2023-04-18T05:14:55.248Z,101264.69
2023-04-18T05:17:22.778Z,101264.25
2023-04-18T05:19:51.048Z,101260.78
2023-04-18T05:22:18.440Z,101265.56
2023-04-18T05:24:46.822Z,101277.38
2023-04-18T05:27:18.038Z,101264.13
2023-04-18T05:29:47.304Z,101269.25
2023-04-18T05:32:14.669Z,101264.94
2023-04-18T05:34:42.261Z,101275.50
2023-04-18T05:37:09.645Z,101265.00
2023-04-18T05:39:37.135Z,101276.41
2023-04-18T05:42:04.870Z,101271.72
2023-04-18T05:44:33.584Z,101282.16
2023-04-18T05:47:01.041Z,101285.78
2023-04-18T05:49:28.413Z,101276.47
2023-04-18T05:51:56.472Z,101288.75
2023-04-18T05:54:25.038Z,101277.44
2023-04-18T05:56:52.534Z,101286.59
2023-04-18T05:59:20.574Z,101297.56
2023-04-18T06:01:49.376Z,101280.78
2023-04-18T06:04:17.498Z,101283.91
2023-04-18T06:06:45.251Z,101285.03
2023-04-18T06:09:12.642Z,101284.94
2023-04-18T06:11:40.022Z,101285.88
2023-04-18T06:14:07.764Z,101288.94
2023-04-18T06:16:37.046Z,101291.31
2023-04-18T06:19:05.859Z,101287.09
2023-04-18T06:21:33.251Z,101298.88
2023-04-18T06:24:01.275Z,101297.00
2023-04-18T06:26:30.080Z,101305.63
2023-04-18T06:28:57.428Z,101303.75
2023-04-18T06:31:24.852Z,101315.88
2023-04-18T06:33:52.335Z,101310.09
2023-04-18T06:36:21.181Z,101314.22
2023-04-18T06:38:48.530Z,101311.94
2023-04-18T06:41:16.151Z,101314.66
2023-04-18T06:43:55.787Z,101317.81
2023-04-18T06:46:29.545Z,101316.84
2023-04-18T06:48:57.048Z,101313.53
2023-04-18T06:51:25.954Z,101306.84
2023-04-18T06:53:53.786Z,101312.22
2023-04-18T06:56:21.495Z,101323.44
2023-04-18T06:58:49.085Z,101315.50
2023-04-18T07:01:16.593Z,101312.81
2023-04-18T07:03:44.164Z,101310.94
2023-04-18T07:06:11.659Z,101312.41
2023-04-18T07:08:40.366Z,101310.44
2023-04-18T07:11:07.771Z,101300.78
2023-04-18T07:13:35.135Z,101308.75
2023-04-18T07:16:02.987Z,101304.56
2023-04-18T07:18:37.933Z,101309.38
2023-04-18T07:21:07.396Z,101319.03
2023-04-18T07:23:35.340Z,101326.72
2023-04-18T07:26:05.492Z,101323.34
2023-04-18T07:28:33.562Z,101330.59
2023-04-18T07:31:01.099Z,101330.97
2023-04-18T07:33:31.576Z,101327.72
2023-04-18T07:35:59.176Z,101339.22
2023-04-18T07:38:27.767Z,101328.72
2023-04-18T07:40:57.594Z,101329.06
2023-04-18T07:43:26.853Z,101327.66
2023-04-18T07:45:54.930Z,101330.31
2023-04-18T07:48:22.878Z,101328.72
2023-04-18T07:50:50.522Z,101328.31
2023-04-18T07:53:18.149Z,101336.09
2023-04-18T07:55:45.659Z,101330.19
2023-04-18T07:58:13.059Z,101329.72
2023-04-18T08:00:43.695Z,101329.94
2023-04-18T08:03:12.330Z,101336.59
2023-04-18T08:05:40.928Z,101328.03
2023-04-18T08:08:09.631Z,101328.09
2023-04-18T08:10:37.668Z,101321.66
2023-04-18T08:13:05.055Z,101334.34
2023-04-18T08:15:32.959Z,101326.00
2023-04-18T08:18:02.146Z,101329.66
2023-04-18T08:20:29.558Z,101335.31
2023-04-18T08:23:07.540Z,101329.69
2023-04-18T08:25:36.601Z,101327.19
2023-04-18T08:28:04.714Z,101334.34
2023-04-18T08:30:32.635Z,101343.31
2023-04-18T08:33:01.825Z,101330.50
2023-04-18T08:35:29.621Z,101333.34
2023-04-18T08:37:57.125Z,101336.81
2023-04-18T08:40:24.961Z,101335.19
2023-04-18T08:42:54.117Z,101333.81
2023-04-18T08:45:21.681Z,101339.69
2023-04-18T08:47:49.140Z,101329.66
2023-04-18T08:50:18.406Z,101336.81
2023-04-18T08:52:47.673Z,101332.78
2023-04-18T08:55:15.729Z,101335.19
2023-04-18T08:57:43.306Z,101349.16
2023-04-18T09:00:11.826Z,101342.56
2023-04-18T09:02:43.210Z,101339.22
2023-04-18T09:05:15.053Z,101342.59
2023-04-18T09:07:43.976Z,101336.06
2023-04-18T09:10:12.514Z,101340.63
2023-04-18T09:12:44.611Z,101335.94
2023-04-18T09:15:14.367Z,101344.22
2023-04-18T09:17:43.542Z,101343.66
2023-04-18T09:20:12.244Z,101351.06
2023-04-18T09:22:48.667Z,101345.41
2023-04-18T09:25:27.362Z,101353.28
2023-04-18T09:27:54.894Z,101346.13
2023-04-18T09:30:39.972Z,101341.34
2023-04-18T09:33:10.178Z,101343.22
2023-04-18T09:35:38.493Z,101348.94
2023-04-18T09:38:08.635Z,101343.66
2023-04-18T09:40:36.514Z,101347.13
2023-04-18T09:43:19.049Z,101351.56
2023-04-18T09:45:47.897Z,101350.97
2023-04-18T09:48:15.339Z,101351.72
2023-04-18T09:50:43.506Z,101351.16
2023-04-18T09:53:13.302Z,101349.91
2023-04-18T09:55:42.277Z,101349.59
2023-04-18T09:58:11.419Z,101342.63
2023-04-18T10:00:40.745Z,101349.75
2023-04-18T10:03:09.820Z,101345.63
2023-04-18T10:05:40.485Z,101350.81
2023-04-18T10:08:08.490Z,101349.59
2023-04-18T10:10:38.947Z,101356.75
2023-04-18T10:13:08.375Z,101350.19
2023-04-18T10:15:36.178Z,101349.59
2023-04-18T10:18:07.933Z,101350.44
2023-04-18T10:20:36.089Z,101348.25
2023-04-18T10:23:37.718Z,101340.22
2023-04-18T10:26:07.489Z,101341.84
2023-04-18T10:28:52.823Z,101344.13
2023-04-18T10:31:22.172Z,101338.47
2023-04-18T10:34:03.347Z,101346.38
2023-04-18T10:36:32.510Z,101339.31
2023-04-18T10:39:02.924Z,101342.88
2023-04-18T10:41:32.309Z,101335.69
2023-04-18T10:44:20.058Z,101344.13
2023-04-18T10:47:23.954Z,101336.38
2023-04-18T10:50:06.636Z,101344.38
2023-04-18T10:52:34.634Z,101342.91
2023-04-18T10:55:18.499Z,101340.88
2023-04-18T10:57:48.860Z,101339.38
2023-04-18T11:00:18.630Z,101342.25
2023-04-18T11:02:51.017Z,101331.13
2023-04-18T11:05:24.161Z,101339.44
2023-04-18T11:07:51.782Z,101337.75
2023-04-18T11:10:20.710Z,101340.72
2023-04-18T11:12:49.535Z,101342.59
2023-04-18T11:15:21.260Z,101340.09
2023-04-18T11:18:00.397Z,101338.00
2023-04-18T11:20:28.476Z,101344.00
2023-04-18T11:22:57.858Z,101350.47
2023-04-18T11:25:27.385Z,101344.34
2023-04-18T11:27:59.342Z,101344.88
2023-04-18T11:30:26.897Z,101343.31
2023-04-18T11:32:55.913Z,101344.31
2023-04-18T11:35:23.678Z,101331.84
2023-04-18T11:37:51.231Z,101349.50
2023-04-18T11:40:18.742Z,101333.13
2023-04-18T11:42:46.224Z,101343.25
2023-04-18T11:45:16.568Z,101346.13
2023-04-18T11:47:44.593Z,101343.41
2023-04-18T11:50:13.570Z,101338.38
2023-04-18T11:52:42.451Z,101350.06
2023-04-18T11:55:17.845Z,101341.00
2023-04-18T11:57:53.442Z,101352.72
2023-04-18T12:00:32.702Z,101337.69
2023-04-18T12:03:01.806Z,101343.38
2023-04-18T12:05:31.473Z,101343.38
2023-04-18T12:08:06.986Z,101352.56
2023-04-18T12:10:35.834Z,101345.81
2023-04-18T12:13:07.968Z,101344.97
2023-04-18T12:15:39.639Z,101344.50
2023-04-18T12:18:09.088Z,101345.75
2023-04-18T12:20:38.749Z,101348.13
2023-04-18T12:23:07.759Z,101334.22
2023-04-18T12:25:36.299Z,101334.25
2023-04-18T12:28:05.061Z,101341.69
2023-04-18T12:30:36.813Z,101335.72
2023-04-18T12:33:06.624Z,101335.31
2023-04-18T12:35:34.154Z,101341.38
2023-04-18T12:38:03.482Z,101336.75
2023-04-18T12:40:31.370Z,101335.44
2023-04-18T12:42:58.747Z,101334.06
2023-04-18T12:45:26.193Z,101333.66
2023-04-18T12:47:54.042Z,101344.78
2023-04-18T12:50:24.700Z,101335.31
2023-04-18T12:52:53.386Z,101341.41
2023-04-18T12:55:21.699Z,101340.44
2023-04-18T12:57:51.418Z,101345.53
2023-04-18T13:00:18.873Z,101339.97
2023-04-18T13:02:46.492Z,101346.97
2023-04-18T13:05:15.719Z,101341.81
2023-04-18T13:07:44.866Z,101336.75
2023-04-18T13:10:14.203Z,101339.44
2023-04-18T13:12:42.410Z,101340.78
2023-04-18T13:15:14.931Z,101330.69
2023-04-18T13:17:42.703Z,101332.59
2023-04-18T13:20:12.357Z,101332.41
2023-04-18T13:22:40.576Z,101328.81
2023-04-18T13:25:11.238Z,101335.00
2023-04-18T13:27:41.460Z,101334.88
2023-04-18T13:30:12.304Z,101323.97
2023-04-18T13:32:40.471Z,101329.31
2023-04-18T13:35:09.411Z,101334.72
2023-04-18T13:37:37.012Z,101326.97
2023-04-18T13:40:06.498Z,101336.53
2023-04-18T13:42:38.126Z,101332.63
2023-04-18T13:45:06.429Z,101331.97
2023-04-18T13:47:33.921Z,101334.44
2023-04-18T13:50:01.300Z,101335.19
2023-04-18T13:52:28.806Z,101334.13
2023-04-18T13:54:56.204Z,101332.19
2023-04-18T13:57:23.619Z,101324.34
2023-04-18T13:59:52.321Z,101328.81
2023-04-18T14:02:19.775Z,101331.59
2023-04-18T14:04:47.412Z,101322.63
2023-04-18T14:07:15.184Z,101328.69
2023-04-18T14:09:42.629Z,101321.41
2023-04-18T14:12:10.536Z,101329.91
2023-04-18T14:14:38.021Z,101323.59
2023-04-18T14:17:06.971Z,101321.75
2023-04-18T14:19:34.918Z,101322.66
2023-04-18T14:22:02.430Z,101319.50
2023-04-18T14:24:29.815Z,101323.53
2023-04-18T14:26:57.282Z,101330.34
2023-04-18T14:29:24.661Z,101327.34
2023-04-18T14:31:52.045Z,101328.59
2023-04-18T14:34:20.810Z,101330.31
2023-04-18T14:36:48.257Z,101331.06
2023-04-18T14:39:15.887Z,101320.91
2023-04-18T14:41:43.402Z,101316.81
2023-04-18T14:44:10.978Z,101324.59
2023-04-18T14:46:38.463Z,101319.91
2023-04-18T14:49:05.950Z,101320.00
2023-04-18T14:51:35.092Z,101312.69
2023-04-18T14:54:02.708Z,101319.22
2023-04-18T14:56:30.446Z,101319.72
2023-04-18T14:58:58.685Z,101322.59
2023-04-18T15:01:26.319Z,101317.56
2023-04-18T15:03:54.669Z,101314.88
2023-04-18T15:06:23.107Z,101312.09
2023-04-18T15:08:53.194Z,101316.75
2023-04-18T15:11:20.993Z,101305.88
2023-04-18T15:13:50.043Z,101309.94
2023-04-18T15:16:17.739Z,101307.16
2023-04-18T15:18:45.449Z,101306.34
2023-04-18T15:21:12.900Z,101305.06
2023-04-18T15:23:40.349Z,101308.97
2023-04-18T15:26:09.119Z,101315.72
2023-04-18T15:28:37.971Z,101318.66
2023-04-18T15:31:07.170Z,101317.81
2023-04-18T15:33:34.735Z,101310.81
2023-04-18T15:36:02.262Z,101312.03
2023-04-18T15:38:32.723Z,101316.41
2023-04-18T15:41:00.580Z,101315.91
2023-04-18T15:43:29.476Z,101307.91
2023-04-18T15:45:56.904Z,101313.47
2023-04-18T15:48:24.438Z,101309.88
2023-04-18T15:50:52.379Z,101314.63
2023-04-18T15:53:19.999Z,101309.50
2023-04-18T15:55:47.561Z,101306.22
2023-04-18T15:58:15.182Z,101309.84
2023-04-18T16:00:44.252Z,101310.94
2023-04-18T16:03:12.185Z,101310.94
2023-04-18T16:05:40.026Z,101310.69
2023-04-18T16:08:08.881Z,101304.03
2023-04-18T16:10:36.486Z,101305.63
2023-04-18T16:13:04.122Z,101315.94
2023-04-18T16:15:32.173Z,101310.53
2023-04-18T16:18:01.657Z,101307.88
2023-04-18T16:20:29.319Z,101306.50
2023-04-18T16:22:56.861Z,101312.09
2023-04-18T16:25:24.714Z,101303.94
2023-04-18T16:27:52.230Z,101313.38
2023-04-18T16:30:19.619Z,101310.53
2023-04-18T16:32:47.055Z,101305.69
2023-04-18T16:35:15.796Z,101304.88
2023-04-18T16:37:43.192Z,101304.13
2023-04-18T16:40:11.318Z,101304.56
2023-04-18T16:42:39.800Z,101307.69
2023-04-18T16:45:08.095Z,101303.91
2023-04-18T16:47:36.922Z,101309.94
2023-04-18T16:50:04.734Z,101298.34
2023-04-18T16:52:33.515Z,101302.59
2023-04-18T16:55:01.006Z,101304.06
2023-04-18T16:57:28.374Z,101304.50
2023-04-18T16:59:55.894Z,101297.72
2023-04-18T17:02:23.642Z,101303.88
2023-04-18T17:04:51.490Z,101304.38
2023-04-18T17:07:19.791Z,101311.09
2023-04-18T17:09:49.185Z,101317.00
2023-04-18T17:12:17.220Z,101309.16
2023-04-18T17:14:45.293Z,101301.38
2023-04-18T17:17:13.307Z,101305.28
2023-04-18T17:19:41.055Z,101311.38
2023-04-18T17:22:08.491Z,101305.72
2023-04-18T17:24:35.888Z,101309.75
2023-04-18T17:27:04.689Z,101324.19
2023-04-18T17:29:32.543Z,101308.06
2023-04-18T17:32:00.013Z,101310.59
2023-04-18T17:34:27.516Z,101319.00
2023-04-18T17:36:54.900Z,101314.25
2023-04-18T17:39:24.223Z,101316.72
2023-04-18T17:41:51.574Z,101314.06
2023-04-18T17:44:20.660Z,101319.63
2023-04-18T17:46:48.939Z,101318.38
2023-04-18T17:49:17.858Z,101316.59
2023-04-18T17:51:45.540Z,101310.66
2023-04-18T17:54:13.426Z,101315.47
2023-04-18T17:56:41.134Z,101315.22
2023-04-18T17:59:09.709Z,101321.94
2023-04-18T18:01:38.686Z,101315.09
2023-04-18T18:04:06.337Z,101313.47
2023-04-18T18:06:34.494Z,101322.25
2023-04-18T18:09:01.888Z,101315.09
2023-04-18T18:11:29.272Z,101320.97
2023-04-18T18:13:57.344Z,101327.41
2023-04-18T18:16:24.904Z,101320.38
2023-04-18T18:18:53.629Z,101322.84
2023-04-18T18:21:21.000Z,101323.47
2023-04-18T18:23:48.388Z,101319.44
2023-04-18T18:26:17.213Z,101323.38
2023-04-18T18:28:44.562Z,101326.94
2023-04-18T18:31:12.038Z,101325.44
2023-04-18T18:33:39.527Z,101326.84
2023-04-18T18:36:08.392Z,101328.09
2023-04-18T18:38:35.785Z,101329.44
2023-04-18T18:41:04.569Z,101331.97
2023-04-18T18:43:32.406Z,101323.28
2023-04-18T18:45:59.895Z,101326.59
2023-04-18T18:48:28.302Z,101328.97
2023-04-18T18:50:56.504Z,101334.44
2023-04-18T18:53:25.422Z,101325.19
2023-04-18T18:55:52.804Z,101329.91
2023-04-18T18:58:20.672Z,101331.97
2023-04-18T19:00:48.166Z,101340.78
2023-04-18T19:03:18.278Z,101340.13
2023-04-18T19:05:45.925Z,101333.56
2023-04-18T19:08:13.474Z,101332.88
2023-04-18T19:10:43.116Z,101338.91
2023-04-18T19:13:10.647Z,101341.69
2023-04-18T19:15:38.120Z,101338.16
2023-04-18T19:18:05.684Z,101343.72
2023-04-18T19:20:35.204Z,101330.16
2023-04-18T19:23:02.650Z,101345.44
2023-04-18T19:25:30.637Z,101331.06
2023-04-18T19:27:59.333Z,101334.84
2023-04-18T19:30:26.694Z,101328.00
2023-04-18T19:32:54.121Z,101329.16
2023-04-18T19:35:21.594Z,101328.94
2023-04-18T19:37:48.987Z,101332.25
2023-04-18T19:40:16.491Z,101333.38
2023-04-18T19:42:44.233Z,101322.94
2023-04-18T19:45:16.222Z,101331.50
2023-04-18T19:47:44.977Z,101332.56
2023-04-18T19:50:12.437Z,101316.72
2023-04-18T19:52:40.185Z,101318.00
2023-04-18T19:55:08.575Z,101316.22
2023-04-18T19:57:38.915Z,101311.84
2023-04-18T20:00:08.322Z,101317.81
2023-04-18T20:02:37.166Z,101325.94
2023-04-18T20:05:05.603Z,101321.41
2023-04-18T20:07:33.182Z,101314.69
2023-04-18T20:10:00.658Z,101321.41
2023-04-18T20:12:28.397Z,101311.25
2023-04-18T20:14:56.138Z,101314.25
2023-04-18T20:17:23.589Z,101310.72
2023-04-18T20:19:52.331Z,101307.16
2023-04-18T20:22:20.193Z,101308.88
2023-04-18T20:24:48.710Z,101311.06
2023-04-18T20:27:20.255Z,101301.16
2023-04-18T20:29:47.677Z,101307.28
2023-04-18T20:32:16.018Z,101318.31
2023-04-18T20:34:43.419Z,101307.06
2023-04-18T20:37:15.381Z,101307.81
2023-04-18T20:39:42.790Z,101308.94
2023-04-18T20:42:14.152Z,101311.38
2023-04-18T20:44:43.119Z,101302.28
2023-04-18T20:47:10.636Z,101306.72
2023-04-18T20:49:38.104Z,101305.31
2023-04-18T20:52:09.401Z,101301.63
2023-04-18T20:54:38.090Z,101305.94
2023-04-18T20:57:05.455Z,101303.69
2023-04-18T20:59:32.824Z,101294.56
2023-04-18T21:02:00.371Z,101301.50
2023-04-18T21:04:28.090Z,101302.53
2023-04-18T21:06:55.590Z,101303.47
2023-04-18T21:09:22.993Z,101301.50
2023-04-18T21:11:51.666Z,101296.63
2023-04-18T21:14:19.917Z,101297.22
2023-04-18T21:16:47.288Z,101297.22
2023-04-18T21:19:14.774Z,101288.66
2023-04-18T21:21:42.158Z,101293.69
2023-04-18T21:24:10.775Z,101282.53
2023-04-18T21:26:38.184Z,101291.13
2023-04-18T21:29:06.929Z,101291.69
2023-04-18T21:31:35.488Z,101290.78
2023-04-18T21:34:04.622Z,101283.69
2023-04-18T21:36:32.662Z,101283.69
2023-04-18T21:39:01.635Z,101282.63
2023-04-18T21:41:29.127Z,101286.25
2023-04-18T21:43:56.850Z,101281.06
2023-04-18T21:46:25.766Z,101280.19
2023-04-18T21:48:53.160Z,101280.94
2023-04-18T21:51:20.599Z,101277.81
2023-04-18T21:53:48.035Z,101276.34
2023-04-18T21:56:16.659Z,101271.28
2023-04-18T21:58:44.160Z,101266.03
2023-04-18T22:01:11.641Z,101269.44
2023-04-18T22:03:40.859Z,101258.59
2023-04-18T22:06:08.394Z,101259.22
2023-04-18T22:08:36.046Z,101255.88
2023-04-18T22:11:04.790Z,101253.38
2023-04-18T22:13:33.142Z,101255.16
2023-04-18T22:16:02.018Z,101255.75
2023-04-18T22:18:33.227Z,101256.28
2023-04-18T22:21:02.352Z,101248.91
2023-04-18T22:23:30.542Z,101242.97
2023-04-18T22:25:57.968Z,101251.34
2023-04-18T22:28:26.186Z,101240.91
2023-04-18T22:30:53.576Z,101238.44
2023-04-18T22:33:20.985Z,101238.44
2023-04-18T22:35:48.886Z,101239.28
2023-04-18T22:38:17.967Z,101228.97
2023-04-18T22:40:45.529Z,101234.75
2023-04-18T22:43:12.908Z,101232.41
2023-04-18T22:45:40.304Z,101240.34
2023-04-18T22:48:11.314Z,101240.13
2023-04-18T22:50:42.473Z,101236.13
2023-04-18T22:53:10.242Z,101224.53
2023-04-18T22:55:40.775Z,101221.66
2023-04-18T22:58:08.622Z,101227.84
2023-04-18T23:00:36.139Z,101229.69
2023-04-18T23:03:03.842Z,101222.66
2023-04-18T23:05:31.727Z,101228.97
2023-04-18T23:08:00.231Z,101216.69
2023-04-18T23:10:28.097Z,101217.78
2023-04-18T23:12:56.956Z,101222.84
2023-04-18T23:15:24.492Z,101218.78
2023-04-18T23:17:53.176Z,101211.22
2023-04-18T23:20:20.985Z,101214.22
2023-04-18T23:22:49.984Z,101211.84
2023-04-18T23:25:17.493Z,101211.34
2023-04-18T23:27:44.867Z,101201.34
2023-04-18T23:30:14.083Z,101208.47
2023-04-18T23:32:41.640Z,101203.34
2023-04-18T23:35:09.947Z,101208.72
2023-04-18T23:37:37.370Z,101202.59
2023-04-18T23:40:06.691Z,101203.47
2023-04-18T23:42:35.065Z,101194.22
2023-04-18T23:45:03.563Z,101191.13
2023-04-18T23:47:32.418Z,101198.44
2023-04-18T23:49:59.818Z,101190.56
2023-04-18T23:52:27.204Z,101188.72
2023-04-18T23:54:54.602Z,101188.41
2023-04-18T23:57:22.109Z,101182.94
2023-04-18T23:59:49.505Z,101180.22
